WetterOnline ( https://www.wetteronline.de )

Wetter aktuell Magdeburg

Aktuelles Wetter: Magdeburg (85m)

6-stündlich | Neueste Meldungen
Ortszeit Temperatur Wetter
So, 29.03. 1:00 4.4° C bedeckt
Sa, 28.03. 19:00 10.3° C fast wolkenlos
Sa, 28.03. 13:00 14.1° C wolkenlos
Sa, 28.03. 7:00 1.0° C wolkenlos
Sa, 28.03. 1:00 3.9° C wolkenlos
Fr, 27.03. 19:00 13.5° C wolkenlos
Fr, 27.03. 13:00 16.1° C wolkenlos
Fr, 27.03. 7:00 2.0° C wolkenlos
Ortszeit Temperatur Wetter
So, 29.03. 5:30 4.3° C bedeckt
So, 29.03. 5:20 4.3° C bedeckt
So, 29.03. 5:10 4.3° C bedeckt
So, 29.03. 5:00 4.2° C bedeckt
So, 29.03. 4:50 4.2° C bedeckt
So, 29.03. 4:40 4.1° C bedeckt
So, 29.03. 4:30 4.2° C bedeckt
So, 29.03. 4:00 4.3° C bedeckt
Ortszeit Relative Feuchte Sichtweite
So, 29.03. 1:00 79% 23 km
Sa, 28.03. 19:00 52% 30 km
Sa, 28.03. 13:00 33% 26 km
Sa, 28.03. 7:00 82% 11 km
Sa, 28.03. 1:00 72% 17 km
Fr, 27.03. 19:00 40% 25 km
Fr, 27.03. 13:00 30% 30 km
Fr, 27.03. 7:00 67% 23 km
Ortszeit Relative Feuchte Sichtweite
So, 29.03. 5:30 77% 30 km
So, 29.03. 5:20 77% -
So, 29.03. 5:10 78% -
So, 29.03. 5:00 79% 30 km
So, 29.03. 4:50 79% -
So, 29.03. 4:40 79% -
So, 29.03. 4:30 81% 30 km
So, 29.03. 4:00 76% 30 km
Ortszeit Niederschlagsmenge Niederschlagsart
So, 29.03. 1:00 0.0 l/m2 in 6 Std. -
Sa, 28.03. 19:00 0.0 l/m2 in 12 Std. -
Sa, 28.03. 13:00 0.0 l/m2 in 6 Std. -
Sa, 28.03. 7:00 0.0 l/m2 in 12 Std. -
Sa, 28.03. 1:00 0.0 l/m2 in 6 Std. -
Fr, 27.03. 19:00 0.0 l/m2 in 12 Std. -
Fr, 27.03. 13:00 0.0 l/m2 in 6 Std. -
Fr, 27.03. 7:00 0.0 l/m2 in 12 Std. -
Ortszeit Niederschlagsmenge Niederschlagsart
So, 29.03. 5:30 0.0 l/m2 in 1 Std. -
So, 29.03. 5:20 keine Meldung -
So, 29.03. 5:10 keine Meldung -
So, 29.03. 5:00 0.0 l/m2 in 1 Std. -
So, 29.03. 4:50 keine Meldung -
So, 29.03. 4:40 keine Meldung -
So, 29.03. 4:30 0.0 l/m2 in 1 Std. -
So, 29.03. 4:00 0.0 l/m2 in 1 Std. -
Ortszeit Stärke Spitze Richtung
km/h Bft. km/h Grad Sektor
So, 29.03. 1:00 4 1 22 310° NW
Sa, 28.03. 19:00 7 2 29 350° N
Sa, 28.03. 13:00 13 3 28 360° N
Sa, 28.03. 7:00 7 2 14 330° NW
Sa, 28.03. 1:00 7 2 22 350° N
Fr, 27.03. 19:00 7 2 31 40° NO
Fr, 27.03. 13:00 11 2 25 60° NO
Fr, 27.03. 7:00 7 2 18 20° N
Ortszeit Stärke Spitze Richtung
km/h Bft. km/h Grad Sektor
So, 29.03. 5:30 9 2 17 290° W
So, 29.03. 5:20 9 2 - 290° W
So, 29.03. 5:10 9 2 - 290° W
So, 29.03. 5:00 7 2 18 300° NW
So, 29.03. 4:50 7 2 - 300° NW
So, 29.03. 4:40 7 2 - 310° NW
So, 29.03. 4:30 7 2 18 300° NW
So, 29.03. 4:00 7 2 18 300° NW
Ortszeit Untergrenze Bedeckung Gattung
total tief tief mittel hoch
So, 29.03. 1:00 1800 m 8/8 8/8 - - -
Sa, 28.03. 19:00 1500 m 1/8 1/8 - - -
Sa, 28.03. 13:00 - 0/8 0/8 - - -
Sa, 28.03. 7:00 - 0/8 0/8 - - -
Sa, 28.03. 1:00 - 0/8 0/8 - - -
Fr, 27.03. 19:00 - 0/8 0/8 - - -
Fr, 27.03. 13:00 - 0/8 0/8 - - -
Fr, 27.03. 7:00 - 0/8 0/8 - - -
Ortszeit Bedeckungsgrad in Achtel und Wolkenuntergrenze
So, 29.03. 5:30 6(1500m) 8(1800m)
So, 29.03. 5:20 6(1500m) 8(1800m)
So, 29.03. 5:10 4(1470m) 8(1800m)
So, 29.03. 5:00 8(1800m)
So, 29.03. 4:50 8(1800m)
So, 29.03. 4:40 8(1800m)
So, 29.03. 4:30 8(1800m)
So, 29.03. 4:00 8(1800m)
Ortszeit Luftdruck NN (hPa) Tendenz (hPa in 3 Std.)
So, 29.03. 1:00 1020 + 0,2
Sa, 28.03. 19:00 1019 + 0,2
Sa, 28.03. 13:00 1020 - 1,3
Sa, 28.03. 7:00 1022 + 0,4
Sa, 28.03. 1:00 1022 - 0,2
Fr, 27.03. 19:00 1021 + 0,3
Fr, 27.03. 13:00 1022 - 1,4
Fr, 27.03. 7:00 1024 - 0,1
Ortszeit Luftdruck NN (hPa) Tendenz (hPa in 3 Std.)
So, 29.03. 5:30 1020 - 0,3
So, 29.03. 5:20 1020 keine Meldung
So, 29.03. 5:10 1020 keine Meldung
So, 29.03. 5:00 1020 - 0,3
So, 29.03. 4:50 1020 keine Meldung
So, 29.03. 4:40 1020 keine Meldung
So, 29.03. 4:30 1020 - 0,2
So, 29.03. 4:00 1020 0,0
Ortszeit Schneehöhe (cm)
So, 29.03. 1:00 0
Sa, 28.03. 19:00 0
Sa, 28.03. 13:00 0
Sa, 28.03. 7:00 0
Sa, 28.03. 1:00 0
Fr, 27.03. 19:00 0
Fr, 27.03. 13:00 0
Fr, 27.03. 7:00 0
Ortszeit Schneehöhe (cm)
So, 29.03. 5:30 0
So, 29.03. 5:20 0
So, 29.03. 5:10 0
So, 29.03. 5:00 0
So, 29.03. 4:50 0
So, 29.03. 4:40 0
So, 29.03. 4:30 0
So, 29.03. 4:00 0
Link zu dieser Seite / Seite empfehlen

Das Wetter in ...